Time;durP1;ratioP1;P1;durP2;ratioP2;P2;SDS_P1;SDS_P2;PMS_P1;PMS_P2;Temp;Humidity;BMP_temperature;BMP_pressure;BME280_temperature;BME280_humidity;BME280_pressure;Samples;Min_cycle;Max_cycle;Signal;HPM_P1;HPM_P2
2021/01/27 00:04:14;;;;;;;;;;;5.10;99.90;;;;;;5211047;23;19929;-78
2021/01/27 00:06:40;;;;;;;;;;;3.80;99.90;;;;;;5032030;28;19948;-78
2021/01/27 00:09:07;;;;;;;;;;;3.80;99.90;;;;;;5053737;23;19910;-79
2021/01/27 00:11:33;;;;;;;;;;;3.90;99.90;;;;;;5016290;28;19953;-78
2021/01/27 00:14:01;;;;;;;;;;;1.00;99.90;;;;;;5011864;28;19933;-77
2021/01/27 00:16:27;;;;;;;;;;;3.70;99.90;;;;;;5002589;28;19926;-78
2021/01/27 00:18:54;;;;;;;;;;;3.70;99.90;;;;;;5003170;28;20366;-78
2021/01/27 00:21:20;;;;;;;;;;;3.70;99.90;;;;;;5004548;28;19932;-78
2021/01/27 00:23:46;;;;;;;;;;;3.70;99.90;;;;;;5000956;28;19930;-78
2021/01/27 00:26:13;;;;;;;;;;;3.70;99.90;;;;;;5009201;28;19953;-78
2021/01/27 00:28:39;;;;;;;;;;;3.70;99.90;;;;;;5000278;28;19934;-78
2021/01/27 00:31:07;;;;;;;;;;;3.70;99.90;;;;;;5001757;28;19930;-78
2021/01/27 00:33:34;;;;;;;;;;;3.70;99.90;;;;;;5004927;28;19937;-78
2021/01/27 00:36:00;;;;;;;;;;;3.80;99.90;;;;;;5008891;28;19926;-78
2021/01/27 00:38:27;;;;;;;;;;;3.80;99.90;;;;;;5004847;28;20342;-78
2021/01/27 00:40:53;;;;;;;;;;;3.80;99.90;;;;;;5010673;28;19953;-78
2021/01/27 00:43:20;;;;;;;;;;;3.80;99.90;;;;;;5009417;28;20306;-78
2021/01/27 00:45:46;;;;;;;;;;;3.80;99.90;;;;;;5000958;28;19934;-77
2021/01/27 00:48:13;;;;;;;;;;;3.80;99.90;;;;;;5000089;28;19961;-78
2021/01/27 00:50:40;;;;;;;;;;;3.80;99.90;;;;;;4999466;28;20090;-77
2021/01/27 00:53:06;;;;;;;;;;;3.80;99.90;;;;;;4999117;28;19961;-77
2021/01/27 00:55:33;;;;;;;;;;;3.90;99.90;;;;;;5006924;28;20438;-78
2021/01/27 00:57:59;;;;;;;;;;;3.80;99.90;;;;;;5008564;28;19926;-78
2021/01/27 01:00:26;;;;;;;;;;;3.90;99.90;;;;;;5005599;28;19957;-78
2021/01/27 01:02:53;;;;;;;;;;;3.90;99.90;;;;;;5003220;28;20418;-78
2021/01/27 01:05:21;;;;;;;;;;;3.90;99.90;;;;;;5004065;28;20068;-78
2021/01/27 01:07:47;;;;;;;;;;;3.80;99.90;;;;;;5005383;28;19925;-78
2021/01/27 01:10:14;;;;;;;;;;;3.80;99.90;;;;;;5009495;28;20266;-78
2021/01/27 01:12:40;;;;;;;;;;;1.60;99.90;;;;;;5003727;28;20035;-78
2021/01/27 01:15:07;;;;;;;;;;;3.80;99.90;;;;;;5001884;28;19964;-78
2021/01/27 01:17:34;;;;;;;;;;;3.90;99.90;;;;;;5000116;28;20425;-77
2021/01/27 01:20:00;;;;;;;;;;;3.90;99.90;;;;;;4999170;28;20021;-77
2021/01/27 01:22:27;;;;;;;;;;;3.90;99.90;;;;;;4998399;28;20016;-77
2021/01/27 01:24:54;;;;;;;;;;;3.80;99.90;;;;;;5001293;28;19925;-77
2021/01/27 01:27:20;;;;;;;;;;;3.80;99.90;;;;;;5000671;28;19926;-77
2021/01/27 01:29:46;;;;;;;;;;;3.80;99.90;;;;;;5004216;28;19930;-78
2021/01/27 01:32:13;;;;;;;;;;;3.80;99.90;;;;;;5004249;28;19932;-78
2021/01/27 01:34:39;;;;;;;;;;;3.80;99.90;;;;;;5002797;28;20012;-78
2021/01/27 01:37:05;;;;;;;;;;;3.80;99.90;;;;;;5002257;28;20381;-78
2021/01/27 01:39:33;;;;;;;;;;;3.80;99.90;;;;;;5001390;28;19926;-77
2021/01/27 01:42:00;;;;;;;;;;;3.90;99.90;;;;;;4999688;28;20262;-77
2021/01/27 01:44:26;;;;;;;;;;;3.90;99.90;;;;;;4999025;28;19940;-77
2021/01/27 01:46:52;;;;;;;;;;;3.90;99.90;;;;;;4998926;28;19926;-77
2021/01/27 01:49:19;;;;;;;;;;;3.90;99.90;;;;;;4998915;28;19936;-77
2021/01/27 01:51:46;;;;;;;;;;;3.90;99.90;;;;;;4998631;28;19979;-77
2021/01/27 01:54:16;;;;;;;;;;;3.90;99.90;;;;;;5001420;28;19936;-77
2021/01/27 01:59:19;;;;;;;;;;;3.90;99.90;;;;;;5061567;23;19937;-79
2021/01/27 02:01:46;;;;;;;;;;;4.20;99.90;;;;;;5023089;28;20016;-78
2021/01/27 02:04:12;;;;;;;;;;;3.90;99.90;;;;;;5021560;28;19929;-78
2021/01/27 02:06:39;;;;;;;;;;;3.90;99.90;;;;;;5021026;28;19925;-78
2021/01/27 02:09:06;;;;;;;;;;;3.90;99.90;;;;;;5020374;28;20342;-78
2021/01/27 02:11:52;;;;;;;;;;;3.90;99.90;;;;;;5020136;28;20262;-78
2021/01/27 02:14:23;;;;;;;;;;;3.90;99.90;;;;;;5020032;28;19933;-78
2021/01/27 02:16:50;;;;;;;;;;;4.00;99.90;;;;;;5019685;28;20388;-78
2021/01/27 02:19:31;;;;;;;;;;;3.90;99.90;;;;;;5019023;28;19931;-78
2021/01/27 02:22:18;;;;;;;;;;;3.90;99.90;;;;;;5019477;28;19936;-78
2021/01/27 02:25:02;;;;;;;;;;;3.90;99.90;;;;;;5019174;28;19925;-78
2021/01/27 02:27:29;;;;;;;;;;;4.00;99.90;;;;;;5020895;28;19936;-78
2021/01/27 02:30:00;;;;;;;;;;;4.00;99.90;;;;;;5022070;28;19932;-78
2021/01/27 02:32:47;;;;;;;;;;;4.00;99.90;;;;;;5028507;28;20020;-78
2021/01/27 02:35:15;;;;;;;;;;;4.00;99.90;;;;;;5022180;28;20372;-78
2021/01/27 02:37:45;;;;;;;;;;;4.00;99.90;;;;;;5021949;28;20317;-77
2021/01/27 02:40:13;;;;;;;;;;;4.00;99.90;;;;;;5020760;28;20269;-78
2021/01/27 02:42:41;;;;;;;;;;;4.00;99.90;;;;;;5019961;28;20354;-78
2021/01/27 02:45:08;;;;;;;;;;;4.10;99.90;;;;;;5019781;28;19929;-78
2021/01/27 02:47:38;;;;;;;;;;;4.00;99.90;;;;;;5019754;28;19925;-78
2021/01/27 02:50:05;;;;;;;;;;;4.10;99.90;;;;;;5019181;28;19936;-78
2021/01/27 02:52:33;;;;;;;;;;;4.10;99.90;;;;;;5018619;28;19926;-78
2021/01/27 02:55:01;;;;;;;;;;;4.10;99.90;;;;;;5018509;28;19925;-78
2021/01/27 02:57:28;;;;;;;;;;;4.10;99.90;;;;;;5019106;28;19926;-78
2021/01/27 02:59:59;;;;;;;;;;;4.10;99.90;;;;;;5019463;28;19926;-78
2021/01/27 03:02:27;;;;;;;;;;;4.10;99.90;;;;;;5018652;28;19931;-77
2021/01/27 03:04:54;;;;;;;;;;;4.10;99.90;;;;;;5018121;28;19937;-77
2021/01/27 03:07:21;;;;;;;;;;;4.10;99.90;;;;;;5018707;28;19926;-78
2021/01/27 03:09:49;;;;;;;;;;;4.10;99.90;;;;;;5019048;28;19925;-78
2021/01/27 03:12:16;;;;;;;;;;;4.00;99.90;;;;;;5020244;28;19932;-78
2021/01/27 03:14:42;;;;;;;;;;;4.00;99.90;;;;;;5020644;28;19948;-78
2021/01/27 03:17:09;;;;;;;;;;;4.10;99.90;;;;;;5019216;28;20373;-78
2021/01/27 03:19:37;;;;;;;;;;;4.10;99.90;;;;;;5020133;28;19951;-78
2021/01/27 03:22:04;;;;;;;;;;;4.10;99.90;;;;;;5019565;28;20270;-78
2021/01/27 03:24:32;;;;;;;;;;;4.10;99.90;;;;;;5018694;28;19936;-78
2021/01/27 03:27:02;;;;;;;;;;;4.10;99.90;;;;;;5018350;28;19925;-78
2021/01/27 03:29:34;;;;;;;;;;;4.10;99.90;;;;;;5019475;28;19936;-78
2021/01/27 03:32:02;;;;;;;;;;;4.10;99.90;;;;;;5017654;28;19932;-78
2021/01/27 03:34:30;;;;;;;;;;;4.10;99.90;;;;;;5018048;28;19925;-78
2021/01/27 03:37:01;;;;;;;;;;;4.10;99.90;;;;;;5019338;28;19925;-78
2021/01/27 03:39:28;;;;;;;;;;;4.10;99.90;;;;;;5019393;28;19929;-78
2021/01/27 03:41:57;;;;;;;;;;;4.10;99.90;;;;;;5017853;28;19926;-78
2021/01/27 03:44:25;;;;;;;;;;;4.10;99.90;;;;;;5018134;28;19925;-77
2021/01/27 03:46:53;;;;;;;;;;;4.10;99.90;;;;;;5016482;28;19987;-77
2021/01/27 03:49:20;;;;;;;;;;;4.10;99.90;;;;;;5016459;28;20313;-77
2021/01/27 03:51:47;;;;;;;;;;;4.10;99.90;;;;;;5016480;28;20278;-77
2021/01/27 03:54:17;;;;;;;;;;;4.10;99.90;;;;;;5018227;28;19926;-78
2021/01/27 03:56:44;;;;;;;;;;;4.10;99.90;;;;;;5018929;28;19925;-78
2021/01/27 03:59:11;;;;;;;;;;;4.10;99.90;;;;;;5018091;28;19988;-78
2021/01/27 04:01:44;;;;;;;;;;;4.10;99.90;;;;;;5017365;28;19995;-78
2021/01/27 04:04:11;;;;;;;;;;;4.10;99.90;;;;;;5017250;28;19925;-77
2021/01/27 04:06:37;;;;;;;;;;;4.10;99.90;;;;;;5016994;28;19930;-77
2021/01/27 04:09:04;;;;;;;;;;;4.10;99.90;;;;;;5016662;28;19929;-78
2021/01/27 04:11:30;;;;;;;;;;;4.10;99.90;;;;;;5016518;28;19926;-77
2021/01/27 04:13:56;;;;;;;;;;;4.10;99.90;;;;;;5016652;28;20246;-77
2021/01/27 04:16:22;;;;;;;;;;;4.10;99.90;;;;;;5015898;28;19926;-77
2021/01/27 04:18:50;;;;;;;;;;;4.10;99.90;;;;;;5016377;28;19925;-78
2021/01/27 04:21:16;;;;;;;;;;;4.10;99.90;;;;;;5016434;28;19932;-78
2021/01/27 04:23:42;;;;;;;;;;;4.10;99.90;;;;;;5016697;28;19926;-78
2021/01/27 04:26:09;;;;;;;;;;;4.10;99.90;;;;;;5016461;28;19926;-77
2021/01/27 04:28:35;;;;;;;;;;;4.10;99.90;;;;;;5016426;28;20243;-77
2021/01/27 04:31:01;;;;;;;;;;;4.10;99.90;;;;;;5016096;28;20358;-78
2021/01/27 04:33:28;;;;;;;;;;;4.20;99.90;;;;;;5016030;28;20354;-78
2021/01/27 04:35:55;;;;;;;;;;;4.20;99.90;;;;;;5015745;28;19948;-77
2021/01/27 04:38:21;;;;;;;;;;;4.20;99.90;;;;;;5015943;28;19925;-77
2021/01/27 04:40:48;;;;;;;;;;;4.20;99.90;;;;;;5017612;28;19930;-78
2021/01/27 04:43:16;;;;;;;;;;;4.20;99.90;;;;;;5017304;28;20383;-78
2021/01/27 04:45:42;;;;;;;;;;;4.30;99.90;;;;;;5017650;28;19925;-77
2021/01/27 04:48:11;;;;;;;;;;;4.30;99.90;;;;;;5016892;28;19925;-78
2021/01/27 04:50:38;;;;;;;;;;;4.30;99.90;;;;;;5017043;28;19925;-78
2021/01/27 04:53:10;;;;;;;;;;;4.30;99.90;;;;;;5016840;28;19926;-77
2021/01/27 04:55:51;;;;;;;;;;;4.30;99.90;;;;;;5016786;28;19925;-78
2021/01/27 04:58:20;;;;;;;;;;;4.30;99.90;;;;;;5011954;28;19940;-78
2021/01/27 05:00:51;;;;;;;;;;;4.30;99.90;;;;;;5016428;28;20358;-78
2021/01/27 05:03:22;;;;;;;;;;;4.30;99.90;;;;;;5019609;28;19974;-78
2021/01/27 05:05:49;;;;;;;;;;;4.30;99.90;;;;;;5020777;28;20258;-78
2021/01/27 05:08:18;;;;;;;;;;;4.30;99.90;;;;;;5021497;28;19926;-78
2021/01/27 05:10:45;;;;;;;;;;;4.30;99.90;;;;;;5021066;28;19925;-78
2021/01/27 05:13:22;;;;;;;;;;;4.30;99.90;;;;;;5022022;28;19935;-78
2021/01/27 05:15:48;;;;;;;;;;;4.30;99.90;;;;;;5020373;28;19926;-78
2021/01/27 05:18:14;;;;;;;;;;;4.30;99.90;;;;;;5020928;28;19926;-77
2021/01/27 05:20:41;;;;;;;;;;;4.30;99.90;;;;;;5020423;28;19925;-78
2021/01/27 05:23:07;;;;;;;;;;;4.30;99.90;;;;;;5019894;28;19957;-77
2021/01/27 05:25:36;;;;;;;;;;;4.30;99.90;;;;;;5019481;28;19929;-78
2021/01/27 05:28:03;;;;;;;;;;;4.30;99.90;;;;;;5020303;28;19926;-78
2021/01/27 05:30:30;;;;;;;;;;;4.30;99.90;;;;;;5021281;28;20296;-78
2021/01/27 05:32:56;;;;;;;;;;;4.30;99.90;;;;;;5020368;28;19926;-78
2021/01/27 05:35:25;;;;;;;;;;;4.40;99.90;;;;;;5020590;28;19933;-78
2021/01/27 05:37:51;;;;;;;;;;;4.40;99.90;;;;;;5020449;28;19925;-78
2021/01/27 05:40:21;;;;;;;;;;;4.40;99.90;;;;;;5020761;28;20320;-77
2021/01/27 05:42:48;;;;;;;;;;;4.40;99.90;;;;;;5021070;28;19940;-78
2021/01/27 05:45:34;;;;;;;;;;;4.40;99.90;;;;;;5022961;28;19926;-78
2021/01/27 05:48:27;;;;;;;;;;;4.50;99.90;;;;;;5023978;28;19925;-78
2021/01/27 05:50:54;;;;;;;;;;;4.50;99.90;;;;;;4963593;28;19930;-78
2021/01/27 05:53:21;;;;;;;;;;;4.50;99.90;;;;;;4961716;28;19926;-78
2021/01/27 05:55:57;;;;;;;;;;;4.50;99.90;;;;;;4959048;29;19930;-78
2021/01/27 05:58:24;;;;;;;;;;;4.50;99.90;;;;;;4958900;28;20407;-78
2021/01/27 06:00:50;;;;;;;;;;;4.50;99.90;;;;;;4959254;28;20337;-78
2021/01/27 06:03:21;;;;;;;;;;;4.50;99.90;;;;;;4959197;29;19927;-78
2021/01/27 06:05:47;;;;;;;;;;;4.50;99.90;;;;;;4959616;29;19927;-78
2021/01/27 06:08:14;;;;;;;;;;;4.50;99.90;;;;;;4958588;29;20355;-78
2021/01/27 06:10:40;;;;;;;;;;;4.50;99.90;;;;;;4959074;28;20275;-78
2021/01/27 06:13:13;;;;;;;;;;;4.50;99.90;;;;;;4958315;28;20323;-78
2021/01/27 06:15:40;;;;;;;;;;;4.50;99.90;;;;;;4959872;28;19937;-78
2021/01/27 06:18:18;;;;;;;;;;;4.50;99.90;;;;;;4960118;29;19927;-78
2021/01/27 06:20:45;;;;;;;;;;;4.60;99.90;;;;;;4959998;29;19926;-78
2021/01/27 06:23:29;;;;;;;;;;;4.60;99.90;;;;;;4959290;29;20279;-78
2021/01/27 06:26:01;;;;;;;;;;;4.60;99.90;;;;;;4968936;28;19926;-77
2021/01/27 06:28:32;;;;;;;;;;;4.60;99.90;;;;;;4998960;28;20373;-77
2021/01/27 06:31:03;;;;;;;;;;;4.60;99.90;;;;;;4998936;28;19926;-78
2021/01/27 06:33:43;;;;;;;;;;;4.60;99.90;;;;;;4999117;28;19992;-78
2021/01/27 06:36:13;;;;;;;;;;;4.60;99.90;;;;;;5002022;28;19934;-78
2021/01/27 06:38:42;;;;;;;;;;;4.70;99.90;;;;;;5000962;28;20003;-78
2021/01/27 06:41:13;;;;;;;;;;;4.70;99.90;;;;;;5003380;28;19926;-78
2021/01/27 06:43:47;;;;;;;;;;;4.60;99.90;;;;;;5015789;28;19926;-79
2021/01/27 06:46:24;;;;;;;;;;;4.80;99.90;;;;;;5014782;28;19992;-79
2021/01/27 06:49:07;;;;;;;;;;;5.00;99.90;;;;;;5008590;28;19926;-79
2021/01/27 06:51:40;;;;;;;;;;;4.80;99.90;;;;;;5005990;28;20377;-78
2021/01/27 06:54:22;;;;;;;;;;;4.90;99.90;;;;;;5002151;28;20032;-78
2021/01/27 06:57:15;;;;;;;;;;;4.90;99.90;;;;;;5000079;28;19983;-78
2021/01/27 07:00:05;;;;;;;;;;;4.90;99.90;;;;;;4959520;28;20348;-77
2021/01/27 07:02:49;;;;;;;;;;;5.00;99.90;;;;;;4949875;28;19926;-78
2021/01/27 07:05:26;;;;;;;;;;;5.00;99.90;;;;;;4966482;28;20368;-78
2021/01/27 07:07:58;;;;;;;;;;;5.00;99.90;;;;;;4965870;28;19926;-79
2021/01/27 07:10:54;;;;;;;;;;;5.00;99.90;;;;;;4961015;28;19931;-78
2021/01/27 07:13:30;;;;;;;;;;;5.00;99.90;;;;;;4964871;29;19934;-78
2021/01/27 07:15:58;;;;;;;;;;;5.00;99.90;;;;;;4962988;28;20013;-78
2021/01/27 07:18:30;;;;;;;;;;;5.10;99.90;;;;;;4961587;29;19940;-78
2021/01/27 07:20:58;;;;;;;;;;;5.10;99.90;;;;;;4960552;29;19937;-78
2021/01/27 07:23:26;;;;;;;;;;;5.10;99.90;;;;;;4960529;29;19932;-78
2021/01/27 07:25:55;;;;;;;;;;;5.10;99.90;;;;;;4959817;28;19927;-78
2021/01/27 07:28:22;;;;;;;;;;;5.10;99.90;;;;;;4961913;28;19926;-78
2021/01/27 07:30:52;;;;;;;;;;;5.10;99.90;;;;;;4963299;28;19926;-78
2021/01/27 07:33:19;;;;;;;;;;;5.10;99.90;;;;;;4959831;28;19957;-78
2021/01/27 07:35:53;;;;;;;;;;;5.10;99.90;;;;;;4986470;28;20279;-78
2021/01/27 11:53:14;;;;;;;;;;;6.80;99.90;;;;;;5057113;23;19941;-87
2021/01/27 12:30:24;;;;;;;;;;;6.80;99.90;;;;;;5090316;23;19925;-89
2021/01/27 12:44:54;;;;;;;;;;;7.00;99.90;;;;;;5005311;28;19972;-88
2021/01/27 12:50:25;;;;;;;;;;;7.10;99.90;;;;;;5000652;28;19928;-89
2021/01/27 12:52:56;;;;;;;;;;;7.10;99.90;;;;;;4996282;28;19930;-87
2021/01/27 12:55:22;;;;;;;;;;;7.10;99.90;;;;;;4996500;28;19936;-87
2021/01/27 12:57:49;;;;;;;;;;;7.10;99.90;;;;;;4995882;28;19925;-87
2021/01/27 13:00:17;;;;;;;;;;;7.20;99.90;;;;;;4995984;28;19926;-89
2021/01/27 13:02:43;;;;;;;;;;;7.20;99.90;;;;;;4995576;28;19926;-88
2021/01/27 13:05:10;;;;;;;;;;;7.20;99.90;;;;;;4995673;28;19926;-88
2021/01/27 13:07:38;;;;;;;;;;;7.30;99.90;;;;;;4995585;28;19932;-88
2021/01/27 13:10:08;;;;;;;;;;;7.30;99.90;;;;;;4995748;28;19933;-88
2021/01/27 13:12:34;;;;;;;;;;;7.30;99.90;;;;;;4995934;28;20328;-88
2021/01/27 13:15:01;;;;;;;;;;;7.40;99.90;;;;;;4995989;28;19929;-87
2021/01/27 13:17:28;;;;;;;;;;;7.40;99.90;;;;;;4995651;28;20278;-89
2021/01/27 13:19:54;;;;;;;;;;;7.30;99.90;;;;;;4995578;28;19933;-90
2021/01/27 13:22:20;;;;;;;;;;;7.30;99.90;;;;;;4995803;28;20306;-89
2021/01/27 13:24:48;;;;;;;;;;;7.30;99.90;;;;;;4999230;28;19930;-90
2021/01/27 13:27:14;;;;;;;;;;;7.30;99.90;;;;;;4999084;28;19926;-90
2021/01/27 13:29:41;;;;;;;;;;;7.30;99.90;;;;;;4999267;28;20013;-89
2021/01/27 13:32:07;;;;;;;;;;;7.30;99.90;;;;;;4999471;28;20005;-89
2021/01/27 13:34:33;;;;;;;;;;;7.30;99.90;;;;;;4999207;28;19930;-89
2021/01/27 13:37:00;;;;;;;;;;;7.30;99.90;;;;;;4999265;28;19925;-88
2021/01/27 13:39:26;;;;;;;;;;;7.40;99.90;;;;;;4998983;28;19925;-90
2021/01/27 13:41:54;;;;;;;;;;;7.40;99.90;;;;;;4998722;28;20321;-89
2021/01/27 13:44:20;;;;;;;;;;;7.40;99.90;;;;;;4999328;28;20289;-89
2021/01/27 13:46:46;;;;;;;;;;;7.30;99.90;;;;;;4998952;28;19930;-89
2021/01/27 13:49:13;;;;;;;;;;;7.30;99.90;;;;;;4998690;28;20246;-89
2021/01/27 13:51:39;;;;;;;;;;;7.30;99.90;;;;;;4998839;28;19926;-87
2021/01/27 13:54:05;;;;;;;;;;;7.30;99.90;;;;;;4998911;28;19933;-90
2021/01/27 13:56:32;;;;;;;;;;;7.30;99.90;;;;;;4998887;28;19934;-88
2021/01/27 13:58:59;;;;;;;;;;;7.30;99.90;;;;;;4998691;28;20270;-88
2021/01/27 14:01:26;;;;;;;;;;;7.30;99.90;;;;;;4998707;28;19936;-89
2021/01/27 14:03:52;;;;;;;;;;;7.30;99.90;;;;;;4998718;28;19952;-89
2021/01/27 14:06:18;;;;;;;;;;;7.30;99.90;;;;;;4998932;28;19926;-88
2021/01/27 14:08:45;;;;;;;;;;;7.30;99.90;;;;;;4998589;28;19926;-88
2021/01/27 14:11:11;;;;;;;;;;;7.30;99.90;;;;;;4998525;28;19936;-89
2021/01/27 14:13:38;;;;;;;;;;;7.30;99.90;;;;;;4998284;28;20235;-89
2021/01/27 14:16:05;;;;;;;;;;;7.40;99.90;;;;;;4998583;28;19975;-89
2021/01/27 14:18:32;;;;;;;;;;;7.40;99.90;;;;;;4998581;28;19936;-89
2021/01/27 14:20:58;;;;;;;;;;;7.40;99.90;;;;;;4998418;28;19940;-90
2021/01/27 14:23:25;;;;;;;;;;;7.40;99.90;;;;;;4998487;28;20361;-88
2021/01/27 14:25:51;;;;;;;;;;;7.40;99.90;;;;;;4998346;28;19926;-89
2021/01/27 14:28:17;;;;;;;;;;;7.40;99.90;;;;;;4998042;28;20003;-89
2021/01/27 14:30:45;;;;;;;;;;;7.40;99.90;;;;;;4998165;28;20016;-89
2021/01/27 14:33:12;;;;;;;;;;;7.40;99.90;;;;;;4998026;28;19926;-88
2021/01/27 14:35:38;;;;;;;;;;;7.40;99.90;;;;;;4997854;28;19926;-89
2021/01/27 14:38:05;;;;;;;;;;;7.40;99.90;;;;;;4998204;28;19926;-88
2021/01/27 14:40:33;;;;;;;;;;;7.30;99.90;;;;;;4997408;28;20196;-88
2021/01/27 14:42:59;;;;;;;;;;;7.30;99.90;;;;;;4998100;28;19936;-88
2021/01/27 14:45:26;;;;;;;;;;;7.20;99.90;;;;;;4997868;28;19926;-88
2021/01/27 14:47:52;;;;;;;;;;;7.20;99.90;;;;;;4998090;28;19925;-88
2021/01/27 14:50:19;;;;;;;;;;;7.20;99.90;;;;;;4998009;28;19936;-89
2021/01/27 14:52:46;;;;;;;;;;;7.30;99.90;;;;;;4998096;28;20302;-88
2021/01/27 14:55:13;;;;;;;;;;;7.20;99.90;;;;;;4998251;28;20331;-87
2021/01/27 14:57:56;;;;;;;;;;;7.20;99.90;;;;;;4997776;28;20347;-88
2021/01/27 15:00:23;;;;;;;;;;;7.30;99.90;;;;;;4997781;28;19972;-86
2021/01/27 15:02:53;;;;;;;;;;;7.30;99.90;;;;;;4997691;28;20405;-87
2021/01/27 15:05:27;;;;;;;;;;;7.30;99.90;;;;;;4997661;28;20358;-88
2021/01/27 15:07:58;;;;;;;;;;;7.30;99.90;;;;;;4997548;28;19925;-88
2021/01/27 15:10:25;;;;;;;;;;;7.30;99.90;;;;;;4997335;28;19925;-88
2021/01/27 15:12:51;;;;;;;;;;;7.30;99.90;;;;;;4997586;28;19925;-87
2021/01/27 15:15:18;;;;;;;;;;;7.30;99.90;;;;;;4997676;28;20286;-88
2021/01/27 15:17:44;;;;;;;;;;;7.30;99.90;;;;;;4997417;28;19988;-88
2021/01/27 15:20:11;;;;;;;;;;;7.30;99.90;;;;;;4996573;28;19926;-88
2021/01/27 15:22:38;;;;;;;;;;;7.30;99.90;;;;;;4997001;28;20084;-87
2021/01/27 15:25:05;;;;;;;;;;;7.30;99.90;;;;;;4997198;28;19976;-88
2021/01/27 15:27:31;;;;;;;;;;;7.30;99.90;;;;;;4996974;28;19926;-87
2021/01/27 15:29:58;;;;;;;;;;;7.30;99.90;;;;;;4997127;28;19937;-88
2021/01/27 15:32:24;;;;;;;;;;;7.30;99.90;;;;;;4996996;28;19929;-87
2021/01/27 15:34:50;;;;;;;;;;;7.30;99.90;;;;;;4997149;28;19936;-88
2021/01/27 15:37:17;;;;;;;;;;;7.30;99.90;;;;;;4996853;28;19926;-86
2021/01/27 15:39:44;;;;;;;;;;;7.30;99.90;;;;;;4997084;28;19936;-87
2021/01/27 15:42:10;;;;;;;;;;;7.30;99.90;;;;;;4997180;28;20350;-86
2021/01/27 15:44:37;;;;;;;;;;;7.30;99.90;;;;;;4996831;28;20420;-88
2021/01/27 15:47:03;;;;;;;;;;;7.30;99.90;;;;;;4996628;28;19957;-87
2021/01/27 15:49:29;;;;;;;;;;;7.30;99.90;;;;;;4997305;28;20258;-88
2021/01/27 15:51:56;;;;;;;;;;;7.30;99.90;;;;;;4996930;28;20336;-87
2021/01/27 15:54:22;;;;;;;;;;;7.30;99.90;;;;;;4996825;28;20417;-87
2021/01/27 15:56:49;;;;;;;;;;;7.30;99.90;;;;;;4997386;28;20358;-86
2021/01/27 15:59:16;;;;;;;;;;;7.30;99.90;;;;;;4998630;28;19957;-86
2021/01/27 16:01:43;;;;;;;;;;;7.20;99.90;;;;;;4998237;28;19936;-85
2021/01/27 16:04:10;;;;;;;;;;;7.30;99.90;;;;;;4997263;28;20308;-78
2021/01/27 16:06:36;;;;;;;;;;;7.30;99.90;;;;;;4996254;28;19981;-79
2021/01/27 16:09:03;;;;;;;;;;;7.30;99.90;;;;;;4996085;28;20074;-78
2021/01/27 16:11:29;;;;;;;;;;;7.30;99.90;;;;;;4995843;28;20261;-80
2021/01/27 16:13:56;;;;;;;;;;;7.20;99.90;;;;;;4995809;28;20378;-79
2021/01/27 16:16:24;;;;;;;;;;;7.20;99.90;;;;;;4995827;28;20375;-79
2021/01/27 16:18:50;;;;;;;;;;;7.20;99.90;;;;;;4995738;28;20355;-79
2021/01/27 16:21:16;;;;;;;;;;;7.10;99.90;;;;;;4992153;28;19989;-78
2021/01/27 16:23:43;;;;;;;;;;;7.10;99.90;;;;;;4976509;28;19926;-79
2021/01/27 16:26:09;;;;;;;;;;;7.10;99.90;;;;;;4976618;28;19957;-78
2021/01/27 16:28:35;;;;;;;;;;;7.10;99.90;;;;;;4976342;28;19926;-79
2021/01/27 16:31:04;;;;;;;;;;;7.10;99.90;;;;;;4976160;28;19926;-78
2021/01/27 16:33:30;;;;;;;;;;;7.00;99.90;;;;;;4976137;28;19926;-79
2021/01/27 16:35:59;;;;;;;;;;;7.00;99.90;;;;;;4976498;28;19927;-79
2021/01/27 16:38:25;;;;;;;;;;;7.00;99.90;;;;;;4976370;28;19926;-78
2021/01/27 16:40:51;;;;;;;;;;;7.00;99.90;;;;;;4976093;28;19926;-78
2021/01/27 16:43:18;;;;;;;;;;;6.90;99.90;;;;;;4976093;28;19965;-79
2021/01/27 16:45:44;;;;;;;;;;;6.90;99.90;;;;;;4976153;28;20260;-78
2021/01/27 16:48:12;;;;;;;;;;;6.90;99.90;;;;;;4976879;28;20434;-76
2021/01/27 16:50:38;;;;;;;;;;;6.90;99.90;;;;;;4975937;28;19930;-76
2021/01/27 16:53:05;;;;;;;;;;;6.90;99.90;;;;;;4975960;28;19930;-76
2021/01/27 16:55:31;;;;;;;;;;;6.80;99.90;;;;;;4974941;28;19989;-76
2021/01/27 16:57:58;;;;;;;;;;;6.80;99.90;;;;;;4978450;28;19930;-76
2021/01/27 17:00:25;;;;;;;;;;;6.80;99.90;;;;;;4980032;28;19926;-77
2021/01/27 17:02:53;;;;;;;;;;;6.80;99.90;;;;;;4979965;28;20243;-76
2021/01/27 17:05:20;;;;;;;;;;;6.80;99.90;;;;;;4980125;28;19927;-76
2021/01/27 17:07:46;;;;;;;;;;;6.80;99.90;;;;;;4979652;28;19930;-76
2021/01/27 17:10:13;;;;;;;;;;;6.80;99.90;;;;;;4979921;28;19926;-76
2021/01/27 17:12:39;;;;;;;;;;;6.80;99.90;;;;;;4979801;28;19937;-76
2021/01/27 17:15:06;;;;;;;;;;;6.80;99.90;;;;;;4979626;28;19937;-76
2021/01/27 17:17:32;;;;;;;;;;;6.80;99.90;;;;;;4979743;28;19937;-76
2021/01/27 17:19:58;;;;;;;;;;;6.80;99.90;;;;;;4979733;28;19926;-76
2021/01/27 17:22:26;;;;;;;;;;;6.80;99.90;;;;;;4979536;28;19937;-76
2021/01/27 17:24:52;;;;;;;;;;;6.80;99.90;;;;;;4979545;28;20414;-76
2021/01/27 17:27:18;;;;;;;;;;;6.80;99.90;;;;;;4979327;28;19985;-76
2021/01/27 17:29:45;;;;;;;;;;;6.70;99.90;;;;;;4979587;28;19933;-76
2021/01/27 17:32:11;;;;;;;;;;;6.70;99.90;;;;;;4979454;28;19937;-76
2021/01/27 17:34:38;;;;;;;;;;;6.20;99.90;;;;;;4979294;28;19925;-76
2021/01/27 17:37:04;;;;;;;;;;;6.70;99.90;;;;;;4980763;28;19910;-80
2021/01/27 17:39:32;;;;;;;;;;;3.80;99.90;;;;;;4980995;28;19926;-78
2021/01/27 17:41:58;;;;;;;;;;;6.60;99.90;;;;;;4979251;28;19936;-77
2021/01/27 17:44:24;;;;;;;;;;;6.60;99.90;;;;;;4980011;28;19938;-75
2021/01/27 17:46:51;;;;;;;;;;;6.60;99.90;;;;;;4979206;28;20270;-75
2021/01/27 17:49:17;;;;;;;;;;;6.60;99.90;;;;;;4978939;28;19926;-75
2021/01/27 17:51:44;;;;;;;;;;;6.60;99.90;;;;;;4979699;28;19926;-78
2021/01/27 17:54:11;;;;;;;;;;;6.60;99.90;;;;;;4981325;28;19937;-79
2021/01/27 17:56:38;;;;;;;;;;;6.60;99.90;;;;;;4980303;28;20255;-78
2021/01/27 17:59:04;;;;;;;;;;;6.60;99.90;;;;;;4979362;28;20370;-79
2021/01/27 18:01:30;;;;;;;;;;;6.60;99.90;;;;;;4979161;28;19933;-78
2021/01/27 18:03:57;;;;;;;;;;;6.60;99.90;;;;;;4979159;28;19932;-78
2021/01/27 18:06:23;;;;;;;;;;;6.60;99.90;;;;;;4979131;28;19985;-78
2021/01/27 18:08:49;;;;;;;;;;;6.50;99.90;;;;;;4978428;28;19937;-78
2021/01/27 18:11:16;;;;;;;;;;;6.50;99.90;;;;;;4979815;28;19999;-79
2021/01/27 18:13:43;;;;;;;;;;;6.50;99.90;;;;;;4979782;28;19926;-77
2021/01/27 18:16:10;;;;;;;;;;;6.50;99.90;;;;;;4979076;28;19933;-78
2021/01/27 18:18:36;;;;;;;;;;;6.50;99.90;;;;;;4978875;28;19948;-78
2021/01/27 18:21:02;;;;;;;;;;;6.50;99.90;;;;;;4978650;28;20362;-78
2021/01/27 18:23:29;;;;;;;;;;;6.40;99.90;;;;;;4978560;28;19930;-77
2021/01/27 18:25:59;;;;;;;;;;;6.50;99.90;;;;;;4978625;28;19934;-77
2021/01/27 18:28:25;;;;;;;;;;;6.40;99.90;;;;;;4978424;28;19926;-78
2021/01/27 18:30:52;;;;;;;;;;;6.40;99.90;;;;;;4978573;28;19926;-78
2021/01/27 18:33:19;;;;;;;;;;;6.40;99.90;;;;;;4978405;28;19941;-77
2021/01/27 18:35:46;;;;;;;;;;;6.40;99.90;;;;;;4978484;28;19945;-78
2021/01/27 18:38:12;;;;;;;;;;;6.40;99.90;;;;;;4978262;28;19967;-77
2021/01/27 18:40:40;;;;;;;;;;;6.40;99.90;;;;;;4978310;28;19941;-77
2021/01/27 18:43:09;;;;;;;;;;;6.40;99.90;;;;;;4978206;28;20354;-77
2021/01/27 18:45:37;;;;;;;;;;;6.40;99.90;;;;;;4978241;28;20377;-77
2021/01/27 18:48:06;;;;;;;;;;;6.40;99.90;;;;;;4978190;28;20367;-78
2021/01/27 18:50:34;;;;;;;;;;;6.40;99.90;;;;;;4978219;28;19930;-78
2021/01/27 18:53:00;;;;;;;;;;;6.40;99.90;;;;;;4978157;28;19934;-77
2021/01/27 18:55:27;;;;;;;;;;;6.40;99.90;;;;;;4978345;28;19926;-77
2021/01/27 18:57:54;;;;;;;;;;;6.40;99.90;;;;;;4978384;28;19965;-77
2021/01/27 19:00:21;;;;;;;;;;;6.40;99.90;;;;;;4978072;28;19930;-77
2021/01/27 19:02:59;;;;;;;;;;;6.40;99.90;;;;;;4977940;28;19926;-77
2021/01/27 19:05:26;;;;;;;;;;;6.40;99.90;;;;;;4977886;28;19980;-77
2021/01/27 19:07:53;;;;;;;;;;;6.40;99.90;;;;;;4977779;28;19926;-77
2021/01/27 19:10:21;;;;;;;;;;;6.40;99.90;;;;;;4977902;28;20343;-78
2021/01/27 19:12:47;;;;;;;;;;;6.40;99.90;;;;;;4978247;28;19936;-78
2021/01/27 19:15:14;;;;;;;;;;;6.40;99.90;;;;;;4977835;28;19926;-77
2021/01/27 19:17:41;;;;;;;;;;;6.40;99.90;;;;;;4977842;28;19925;-78
2021/01/27 19:20:10;;;;;;;;;;;6.30;99.90;;;;;;4977096;28;19926;-77
2021/01/27 19:22:39;;;;;;;;;;;6.30;99.90;;;;;;4977259;28;19987;-77
2021/01/27 19:25:09;;;;;;;;;;;6.30;99.90;;;;;;4977367;28;19930;-77
2021/01/27 19:27:36;;;;;;;;;;;6.30;99.90;;;;;;4977286;28;20366;-77
2021/01/27 19:30:03;;;;;;;;;;;6.30;99.90;;;;;;4977322;28;19937;-77
2021/01/27 19:32:30;;;;;;;;;;;6.30;99.90;;;;;;4977015;28;19933;-77
2021/01/27 19:35:00;;;;;;;;;;;6.30;99.90;;;;;;4977523;28;19936;-77
2021/01/27 19:37:28;;;;;;;;;;;6.30;99.90;;;;;;4977419;28;20335;-77
2021/01/27 19:39:59;;;;;;;;;;;6.30;99.90;;;;;;4976991;28;19926;-77
2021/01/27 19:42:29;;;;;;;;;;;6.30;99.90;;;;;;4977350;28;19926;-77
2021/01/27 19:44:59;;;;;;;;;;;6.30;99.90;;;;;;4977164;28;19926;-77
2021/01/27 19:47:26;;;;;;;;;;;6.30;99.90;;;;;;4976912;28;19934;-77